Ryoei Maru — JL6703 — position and weather

sailwx.info

Track history (hours):
 
Tides and Currents Weather Stations Pressure Air Temp Water Temp Dewpoint Dewpoint Depression Visibility Wind Speed Wind Dir Waves Ship Positions

Ryoei Maru

Last reported at 2017-Mar-23 12:30 UTC. Time now 2017-Mar-24 00:14 UTC.
Position N 35°05' E 139°40'.

Length 95 m; draft 5 m.

Type: Cargo ship. MMSI: 431501749.

Date/timePositionNaut miles runAvg speedWind from/ knotsBaromVisibWave heightAir tempDewpointWater temp
2017-Mar-23 12:30N 35°05' E 139°40'1112.1
2017-Mar-23 11:34N 35°15' E 139°46'1110.6
2017-Mar-23 10:34N 35°26' E 139°45'1110.2
2017-Mar-23 09:28N 35°36' E 139°50'3 2.8
2017-Mar-23 08:28N 35°37' E 139°47'0 0.0
2017-Mar-23 07:28N 35°37' E 139°47'0 0.0
2017-Mar-23 06:22N 35°37' E 139°47'0 0.0
2017-Mar-23 05:28N 35°37' E 139°47'0 0.0
2017-Mar-23 04:31N 35°37' E 139°47'0 0.0
2017-Mar-23 03:28N 35°37' E 139°47'0 0.0
2017-Mar-23 02:31N 35°37' E 139°47'0 0.0
2017-Mar-23 01:31N 35°37' E 139°47'0 0.0
2017-Mar-23 00:31N 35°37' E 139°47'0 0.0
2017-Mar-22 23:31N 35°37' E 139°47'0 0.0
2017-Mar-22 22:28N 35°37' E 139°47'4 4.5
2017-Mar-22 21:33N 35°35' E 139°52'9 9.5
2017-Mar-22 20:34N 35°26' E 139°49'1010.2
2017-Mar-22 19:33N 35°16' E 139°46'  
2017-Mar-17 10:30N 34°02' E 134°59'1313.6
2017-Mar-17 09:33N 34°15' E 134°59'1313.4
2017-Mar-17 08:33N 34°28' E 135°02'10 9.7
2017-Mar-17 07:33N 34°37' E 134°56'6 0.4
2017-Mar-16 18:18N 34°40' E 134°49'0 0.0
2017-Mar-16 15:06N 34°40' E 134°49'1 1.9
2017-Mar-16 14:29N 34°39' E 134°51'1314.1
2017-Mar-16 13:33N 34°36' E 135°06'1312.8
2017-Mar-16 12:33N 34°37' E 135°22'3 3.0
2017-Mar-16 11:28N 34°37' E 135°26'0 0.0
2017-Mar-16 10:28N 34°37' E 135°26'0 0.0
2017-Mar-16 09:28N 34°37' E 135°26'0 0.0
2017-Mar-16 08:22N 34°37' E 135°26'0 0.0
2017-Mar-16 07:28N 34°37' E 135°26'0 0.0
2017-Mar-16 02:28N 34°37' E 135°26'0 0.0
2017-Mar-16 01:22N 34°37' E 135°26'4 5.0
2017-Mar-16 00:34N 34°36' E 135°21'1312.3
2017-Mar-15 23:32N 34°27' E 135°10'1212.4
2017-Mar-15 22:33N 34°18' E 135°00'1211.5
2017-Mar-15 21:31N 34°06' E 135°00'  
Track history (hours):
 
Tides and Currents Weather Stations Pressure Air Temp Water Temp Dewpoint Dewpoint Depression Visibility Wind Speed Wind Dir Waves Ship Positions

Ryoei Maru

Last reported at 2017-Mar-23 12:30 UTC. Time now 2017-Mar-24 00:14 UTC.
Position N 35°05' E 139°40'.

Length 95 m; draft 5 m.

Type: Cargo ship. MMSI: 431501749.

Date/timePositionNaut miles runAvg speedWind from/ knotsBaromVisibWave heightAir tempDewpointWater temp
2017-Mar-23 12:30N 35°05' E 139°40'1112.1
2017-Mar-23 11:34N 35°15' E 139°46'1110.6
2017-Mar-23 10:34N 35°26' E 139°45'1110.2
2017-Mar-23 09:28N 35°36' E 139°50'3 2.8
2017-Mar-23 08:28N 35°37' E 139°47'0 0.0
2017-Mar-23 07:28N 35°37' E 139°47'0 0.0
2017-Mar-23 06:22N 35°37' E 139°47'0 0.0
2017-Mar-23 05:28N 35°37' E 139°47'0 0.0
2017-Mar-23 04:31N 35°37' E 139°47'0 0.0
2017-Mar-23 03:28N 35°37' E 139°47'0 0.0
2017-Mar-23 02:31N 35°37' E 139°47'0 0.0
2017-Mar-23 01:31N 35°37' E 139°47'0 0.0
2017-Mar-23 00:31N 35°37' E 139°47'0 0.0
2017-Mar-22 23:31N 35°37' E 139°47'0 0.0
2017-Mar-22 22:28N 35°37' E 139°47'4 4.5
2017-Mar-22 21:33N 35°35' E 139°52'9 9.5
2017-Mar-22 20:34N 35°26' E 139°49'1010.2
2017-Mar-22 19:33N 35°16' E 139°46'  
2017-Mar-17 10:30N 34°02' E 134°59'1313.6
2017-Mar-17 09:33N 34°15' E 134°59'1313.4
2017-Mar-17 08:33N 34°28' E 135°02'10 9.7
2017-Mar-17 07:33N 34°37' E 134°56'6 0.4
2017-Mar-16 18:18N 34°40' E 134°49'0 0.0
2017-Mar-16 15:06N 34°40' E 134°49'1 1.9
2017-Mar-16 14:29N 34°39' E 134°51'1314.1
2017-Mar-16 13:33N 34°36' E 135°06'1312.8
2017-Mar-16 12:33N 34°37' E 135°22'3 3.0
2017-Mar-16 11:28N 34°37' E 135°26'0 0.0
2017-Mar-16 10:28N 34°37' E 135°26'0 0.0
2017-Mar-16 09:28N 34°37' E 135°26'0 0.0
2017-Mar-16 08:22N 34°37' E 135°26'0 0.0
2017-Mar-16 07:28N 34°37' E 135°26'0 0.0
2017-Mar-16 02:28N 34°37' E 135°26'0 0.0
2017-Mar-16 01:22N 34°37' E 135°26'4 5.0
2017-Mar-16 00:34N 34°36' E 135°21'1312.3
2017-Mar-15 23:32N 34°27' E 135°10'1212.4
2017-Mar-15 22:33N 34°18' E 135°00'1211.5
2017-Mar-15 21:31N 34°06' E 135°00'  

Dump ship's entire track history